Wetterdaten: Woche 24.03.14 - 30.03.14 (KW13)
Datum Zeit Temp. Aussen +5cm Feuchte Auss Luftdruck Regen Sonnenschein Regendauer UV Solar Windben
24.03.2014 00:00 3,1 C 1,9 C 92 % 1009,7 hPa 0,0 l/m 0,00 h 0,00 h 0,0 UV-I 0 W/m 0,0 km/h (0 Bft)
24.03.2014 01:00 3,0 C 2,1 C 94 % 1009,9 hPa 0,0 l/m 0,00 h 0,00 h 0,0 UV-I 0 W/m 0,0 km/h (0 Bft)
24.03.2014 02:00 3,1 C 2,2 C 93 % 1010,1 hPa 0,0 l/m 0,00 h 0,00 h 0,0 UV-I 0 W/m 0,0 km/h (0 Bft)
24.03.2014 03:00 3,0 C 1,9 C 94 % 1010,3 hPa 0,0 l/m 0,00 h 0,00 h 0,0 UV-I 0 W/m 0,0 km/h (0 Bft)
24.03.2014 04:00 2,8 C 1,8 C 94 % 1010,8 hPa 0,0 l/m 0,00 h 0,00 h 0,0 UV-I 0 W/m 0,0 km/h (0 Bft)
24.03.2014 05:00 3,1 C 2,2 C 95 % 1011,3 hPa 0,0 l/m 0,00 h 0,00 h 0,0 UV-I 0 W/m 0,0 km/h (0 Bft)
24.03.2014 06:00 3,3 C 2,4 C 95 % 1011,8 hPa 0,0 l/m 0,33 h 0,00 h 0,0 UV-I 35 W/m 0,0 km/h (0 Bft)
24.03.2014 07:00 3,8 C 3,4 C 95 % 1012,5 hPa 0,0 l/m 0,10 h 0,00 h 0,0 UV-I 62 W/m 0,2 km/h (0 Bft)
24.03.2014 08:00 4,3 C 4,0 C 92 % 1012,9 hPa 0,0 l/m 0,10 h 0,00 h 0,0 UV-I 133 W/m 1,6 km/h (1 Bft)
24.03.2014 09:00 5,0 C 5,0 C 90 % 1013,3 hPa 0,0 l/m 0,30 h 0,00 h 0,0 UV-I 212 W/m 5,9 km/h (2 Bft)
24.03.2014 10:00 6,2 C 6,6 C 86 % 1013,5 hPa 0,0 l/m 0,40 h 0,00 h 0,5 UV-I 298 W/m 5,4 km/h (1 Bft)
24.03.2014 11:00 6,8 C 6,9 C 81 % 1013,6 hPa 0,0 l/m 0,27 h 0,00 h 0,7 UV-I 327 W/m 9,8 km/h (2 Bft)
24.03.2014 12:00 7,8 C 7,9 C 77 % 1013,4 hPa 0,0 l/m 0,30 h 0,07 h 0,7 UV-I 314 W/m 8,7 km/h (2 Bft)
24.03.2014 13:00 8,1 C 8,6 C 72 % 1013,2 hPa 0,0 l/m 0,40 h 0,03 h 0,8 UV-I 355 W/m 3,4 km/h (1 Bft)
24.03.2014 14:00 8,8 C 8,6 C 65 % 1012,7 hPa 0,0 l/m 0,90 h 0,00 h 1,0 UV-I 521 W/m 6,9 km/h (2 Bft)
24.03.2014 15:00 9,6 C 9,6 C 59 % 1012,3 hPa 0,0 l/m 0,80 h 0,00 h 0,7 UV-I 449 W/m 8,8 km/h (2 Bft)
24.03.2014 16:00 8,5 C 7,7 C 67 % 1012,2 hPa 0,0 l/m 0,20 h 0,00 h 0,0 UV-I 135 W/m 7,2 km/h (2 Bft)
24.03.2014 17:00 7,9 C 6,8 C 70 % 1012,2 hPa 0,0 l/m 0,73 h 0,00 h 0,0 UV-I 149 W/m 5,1 km/h (1 Bft)
24.03.2014 18:00 6,2 C 4,7 C 78 % 1012,6 hPa 0,0 l/m 0,00 h 0,00 h 0,0 UV-I 21 W/m 0,1 km/h (0 Bft)
24.03.2014 19:00 4,9 C 2,7 C 82 % 1013,0 hPa 0,0 l/m 0,00 h 0,00 h 0,0 UV-I 0 W/m 0,0 km/h (0 Bft)
24.03.2014 20:00 3,8 C 2,0 C 88 % 1013,2 hPa 0,0 l/m 0,00 h 0,00 h 0,0 UV-I 0 W/m 0,0 km/h (0 Bft)
24.03.2014 21:00 2,9 C 0,9 C 90 % 1013,1 hPa 0,0 l/m 0,00 h 0,00 h 0,0 UV-I 0 W/m 0,0 km/h (0 Bft)
24.03.2014 22:00 1,9 C 0,2 C 92 % 1013,0 hPa 0,0 l/m 0,00 h 0,00 h 0,0 UV-I 0 W/m 0,0 km/h (0 Bft)
24.03.2014 23:00 1,1 C -0,5 C 94 % 1012,9 hPa 0,0 l/m 0,00 h 0,00 h 0,0 UV-I 0 W/m 0,0 km/h (0 Bft)
25.03.2014 00:00 0,5 C -0,9 C 94 % 1012,9 hPa 0,0 l/m 0,00 h 0,00 h 0,0 UV-I 0 W/m 0,1 km/h (0 Bft)
25.03.2014 01:00 0,1 C -1,2 C 95 % 1012,7 hPa 0,0 l/m 0,00 h 0,00 h 0,0 UV-I 0 W/m 0,3 km/h (0 Bft)
25.03.2014 02:00 -0,5 C -1,7 C 95 % 1012,3 hPa 0,0 l/m 0,00 h 0,00 h 0,0 UV-I 0 W/m 0,0 km/h (0 Bft)
25.03.2014 03:00 -0,7 C -2,1 C 96 % 1011,9 hPa 0,0 l/m 0,00 h 0,00 h 0,0 UV-I 0 W/m 0,0 km/h (0 Bft)
25.03.2014 04:00 -0,9 C -2,2 C 96 % 1011,6 hPa 0,0 l/m 0,00 h 0,00 h 0,0 UV-I 0 W/m 0,0 km/h (0 Bft)
25.03.2014 05:00 -0,9 C -2,2 C 97 % 1011,4 hPa 0,0 l/m 0,00 h 0,00 h 0,0 UV-I 0 W/m 0,0 km/h (0 Bft)
25.03.2014 06:00 -0,5 C -1,8 C 97 % 1011,3 hPa 0,0 l/m 0,00 h 0,00 h 0,0 UV-I 14 W/m 0,1 km/h (0 Bft)
25.03.2014 07:00 -0,0 C -0,7 C 97 % 1011,3 hPa 0,0 l/m 0,30 h 0,00 h 0,0 UV-I 72 W/m 3,2 km/h (1 Bft)
25.03.2014 08:00 1,7 C 0,9 C 97 % 1011,2 hPa 0,2 l/m 1,00 h 0,00 h 0,0 UV-I 236 W/m 2,2 km/h (1 Bft)
25.03.2014 09:00 5,1 C 3,8 C 91 % 1010,9 hPa 0,0 l/m 0,97 h 0,00 h 0,5 UV-I 383 W/m 3,7 km/h (1 Bft)
25.03.2014 10:00 7,7 C 6,5 C 75 % 1010,6 hPa 0,0 l/m 1,00 h 0,00 h 0,8 UV-I 506 W/m 10,0 km/h (2 Bft)
25.03.2014 11:00 9,5 C 8,5 C 67 % 1010,2 hPa 0,0 l/m 0,90 h 0,00 h 1,1 UV-I 568 W/m 8,0 km/h (2 Bft)
25.03.2014 12:00 11,1 C 10,4 C 58 % 1009,8 hPa 0,0 l/m 1,00 h 0,00 h 0,9 UV-I 706 W/m 11,8 km/h (2 Bft)
25.03.2014 13:00 11,6 C 11,2 C 54 % 1009,4 hPa 0,0 l/m 0,57 h 0,00 h 1,2 UV-I 502 W/m 7,2 km/h (2 Bft)
25.03.2014 14:00 9,8 C 8,6 C 58 % 1009,4 hPa 0,0 l/m 0,53 h 0,30 h 0,8 UV-I 363 W/m 10,4 km/h (2 Bft)
25.03.2014 15:00 11,1 C 10,7 C 52 % 1009,0 hPa 0,0 l/m 0,70 h 0,00 h 0,7 UV-I 400 W/m 9,7 km/h (2 Bft)
25.03.2014 16:00 10,2 C 9,2 C 55 % 1009,0 hPa 0,0 l/m 0,97 h 0,10 h 0,0 UV-I 315 W/m 16,6 km/h (3 Bft)
25.03.2014 17:00 10,2 C 8,9 C 52 % 1009,2 hPa 0,0 l/m 0,93 h 0,00 h 0,0 UV-I 157 W/m 8,7 km/h (2 Bft)
25.03.2014 18:00 9,7 C 8,1 C 56 % 1009,7 hPa 0,0 l/m 0,20 h 0,00 h 0,0 UV-I 32 W/m 6,7 km/h (2 Bft)
25.03.2014 19:00 7,6 C 5,6 C 68 % 1010,4 hPa 0,0 l/m 0,00 h 0,00 h 0,0 UV-I 0 W/m 0,3 km/h (0 Bft)
25.03.2014 20:00 5,4 C 3,0 C 76 % 1011,1 hPa 0,0 l/m 0,00 h 0,00 h 0,0 UV-I 0 W/m 0,0 km/h (0 Bft)
25.03.2014 21:00 4,2 C 1,8 C 81 % 1011,6 hPa 0,0 l/m 0,00 h 0,00 h 0,0 UV-I 0 W/m 0,0 km/h (0 Bft)
25.03.2014 22:00 2,9 C 0,8 C 85 % 1011,9 hPa 0,0 l/m 0,00 h 0,00 h 0,0 UV-I 0 W/m 0,0 km/h (0 Bft)
25.03.2014 23:00 1,9 C -0,0 C 87 % 1012,1 hPa 0,0 l/m 0,00 h 0,00 h 0,0 UV-I 0 W/m 0,0 km/h (0 Bft)
26.03.2014 00:00 1,1 C -0,7 C 89 % 1012,2 hPa 0,0 l/m 0,00 h 0,00 h 0,0 UV-I 0 W/m 0,0 km/h (0 Bft)
26.03.2014 01:00 0,5 C -1,3 C 90 % 1012,3 hPa 0,0 l/m 0,00 h 0,00 h 0,0 UV-I 0 W/m 0,0 km/h (0 Bft)
26.03.2014 02:00 0,0 C -1,7 C 92 % 1012,4 hPa 0,0 l/m 0,00 h 0,00 h 0,0 UV-I 0 W/m 0,0 km/h (0 Bft)
26.03.2014 03:00 -0,1 C -1,7 C 92 % 1012,3 hPa 0,0 l/m 0,00 h 0,00 h 0,0 UV-I 0 W/m 0,0 km/h (0 Bft)
26.03.2014 04:00 -0,5 C -2,0 C 93 % 1012,5 hPa 0,0 l/m 0,00 h 0,00 h 0,0 UV-I 0 W/m 0,0 km/h (0 Bft)
26.03.2014 05:00 -0,9 C -2,2 C 94 % 1012,8 hPa 0,0 l/m 0,00 h 0,00 h 0,0 UV-I 0 W/m 0,0 km/h (0 Bft)
26.03.2014 06:00 -1,0 C -2,2 C 95 % 1013,1 hPa 0,0 l/m 0,00 h 0,00 h 0,0 UV-I 13 W/m 0,0 km/h (0 Bft)
26.03.2014 07:00 -0,3 C -1,4 C 95 % 1013,6 hPa 0,0 l/m 0,13 h 0,00 h 0,0 UV-I 69 W/m 0,0 km/h (0 Bft)
26.03.2014 08:00 1,7 C 1,1 C 96 % 1014,1 hPa 0,0 l/m 0,97 h 0,00 h 0,0 UV-I 221 W/m 0,2 km/h (0 Bft)
26.03.2014 09:00 4,9 C 3,9 C 91 % 1014,3 hPa 0,0 l/m 0,97 h 0,00 h 0,5 UV-I 375 W/m 0,1 km/h (0 Bft)
26.03.2014 10:00 7,3 C 6,8 C 81 % 1014,3 hPa 0,0 l/m 0,97 h 0,00 h 0,8 UV-I 509 W/m 1,8 km/h (1 Bft)
26.03.2014 11:00 9,0 C 8,4 C 70 % 1014,2 hPa 0,0 l/m 0,63 h 0,00 h 1,0 UV-I 506 W/m 2,5 km/h (1 Bft)
26.03.2014 12:00 10,2 C 9,9 C 60 % 1014,0 hPa 0,0 l/m 0,90 h 0,00 h 0,8 UV-I 667 W/m 7,1 km/h (2 Bft)
26.03.2014 13:00 10,2 C 10,0 C 57 % 1013,7 hPa 0,0 l/m 0,47 h 0,00 h 0,8 UV-I 404 W/m 5,2 km/h (1 Bft)
26.03.2014 14:00 11,2 C 11,4 C 53 % 1013,3 hPa 0,0 l/m 0,97 h 0,00 h 1,1 UV-I 656 W/m 7,3 km/h (2 Bft)
26.03.2014 15:00 11,4 C 11,4 C 52 % 1013,0 hPa 0,0 l/m 0,80 h 0,00 h 0,6 UV-I 405 W/m 5,3 km/h (1 Bft)
26.03.2014 16:00 10,1 C 9,0 C 56 % 1013,0 hPa 0,0 l/m 0,30 h 0,00 h 0,0 UV-I 149 W/m 5,7 km/h (1 Bft)
26.03.2014 17:00 10,3 C 8,7 C 55 % 1013,2 hPa 0,0 l/m 0,63 h 0,00 h 0,0 UV-I 126 W/m 7,0 km/h (2 Bft)
26.03.2014 18:00 8,5 C 7,0 C 66 % 1013,8 hPa 0,0 l/m 0,00 h 0,00 h 0,0 UV-I 26 W/m 5,9 km/h (2 Bft)
26.03.2014 19:00 6,7 C 4,9 C 71 % 1014,4 hPa 0,0 l/m 0,00 h 0,00 h 0,0 UV-I 0 W/m 0,6 km/h (0 Bft)
26.03.2014 20:00 5,5 C 3,5 C 76 % 1014,8 hPa 0,0 l/m 0,00 h 0,00 h 0,0 UV-I 0 W/m 0,0 km/h (0 Bft)
26.03.2014 21:00 5,8 C 4,3 C 78 % 1015,0 hPa 0,0 l/m 0,00 h 0,17 h 0,0 UV-I 0 W/m 1,6 km/h (1 Bft)
26.03.2014 22:00 6,3 C 4,1 C 80 % 1014,8 hPa 0,0 l/m 0,00 h 0,50 h 0,0 UV-I 0 W/m 2,4 km/h (1 Bft)
26.03.2014 23:00 5,4 C 3,1 C 84 % 1014,7 hPa 0,0 l/m 0,00 h 0,03 h 0,0 UV-I 0 W/m 0,0 km/h (0 Bft)
27.03.2014 00:00 4,9 C 3,3 C 85 % 1014,3 hPa 0,0 l/m 0,00 h 0,00 h 0,0 UV-I 0 W/m 0,1 km/h (0 Bft)
27.03.2014 01:00 4,9 C 3,4 C 86 % 1014,1 hPa 0,0 l/m 0,00 h 0,13 h 0,0 UV-I 0 W/m 0,1 km/h (0 Bft)
27.03.2014 02:00 5,1 C 3,7 C 86 % 1013,5 hPa 0,2 l/m 0,00 h 0,23 h 0,0 UV-I 0 W/m 0,5 km/h (0 Bft)
27.03.2014 03:00 4,7 C 2,9 C 89 % 1013,0 hPa 0,0 l/m 0,00 h 0,17 h 0,0 UV-I 0 W/m 0,1 km/h (0 Bft)
27.03.2014 04:00 4,7 C 3,1 C 91 % 1012,7 hPa 0,0 l/m 0,00 h 0,03 h 0,0 UV-I 0 W/m 0,1 km/h (0 Bft)
27.03.2014 05:00 4,4 C 2,9 C 91 % 1012,7 hPa 0,0 l/m 0,00 h 0,00 h 0,0 UV-I 0 W/m 0,5 km/h (0 Bft)
27.03.2014 06:00 3,9 C 2,6 C 90 % 1012,8 hPa 0,0 l/m 0,20 h 0,00 h 0,0 UV-I 20 W/m 0,3 km/h (0 Bft)
27.03.2014 07:00 4,1 C 3,0 C 89 % 1012,9 hPa 0,0 l/m 0,13 h 0,00 h 0,0 UV-I 63 W/m 0,6 km/h (0 Bft)
27.03.2014 08:00 6,3 C 5,4 C 84 % 1013,0 hPa 0,0 l/m 0,93 h 0,00 h 0,0 UV-I 269 W/m 1,9 km/h (1 Bft)
27.03.2014 09:00 8,3 C 7,0 C 75 % 1013,0 hPa 0,0 l/m 0,97 h 0,00 h 0,5 UV-I 390 W/m 4,3 km/h (1 Bft)
27.03.2014 10:00 10,5 C 10,0 C 68 % 1012,7 hPa 0,0 l/m 0,97 h 0,00 h 0,9 UV-I 531 W/m 8,0 km/h (2 Bft)
27.03.2014 11:00 12,0 C 11,1 C 64 % 1012,4 hPa 0,0 l/m 0,97 h 0,00 h 1,2 UV-I 585 W/m 10,0 km/h (2 Bft)
27.03.2014 12:00 13,6 C 12,4 C 59 % 1011,8 hPa 0,0 l/m 0,97 h 0,00 h 1,0 UV-I 618 W/m 9,4 km/h (2 Bft)
27.03.2014 13:00 14,7 C 13,4 C 56 % 1011,2 hPa 0,0 l/m 0,83 h 0,00 h 1,3 UV-I 539 W/m 12,5 km/h (3 Bft)
27.03.2014 14:00 15,1 C 13,8 C 56 % 1010,7 hPa 0,0 l/m 0,77 h 0,00 h 1,0 UV-I 438 W/m 10,8 km/h (2 Bft)
27.03.2014 15:00 15,6 C 14,7 C 54 % 1010,4 hPa 0,0 l/m 0,87 h 0,00 h 0,6 UV-I 409 W/m 10,8 km/h (2 Bft)
27.03.2014 16:00 16,0 C 14,3 C 49 % 1010,2 hPa 0,0 l/m 0,97 h 0,00 h 0,0 UV-I 318 W/m 14,2 km/h (3 Bft)
27.03.2014 17:00 15,1 C 13,4 C 49 % 1010,4 hPa 0,0 l/m 0,50 h 0,00 h 0,0 UV-I 133 W/m 15,0 km/h (3 Bft)
27.03.2014 18:00 13,7 C 11,7 C 51 % 1010,7 hPa 0,0 l/m 0,37 h 0,00 h 0,0 UV-I 29 W/m 9,8 km/h (2 Bft)
27.03.2014 19:00 11,7 C 8,9 C 58 % 1011,2 hPa 0,0 l/m 0,00 h 0,00 h 0,0 UV-I 0 W/m 0,3 km/h (0 Bft)
27.03.2014 20:00 10,8 C 8,3 C 62 % 1011,9 hPa 0,0 l/m 0,00 h 0,00 h 0,0 UV-I 0 W/m 2,0 km/h (1 Bft)
27.03.2014 21:00 10,1 C 8,0 C 64 % 1012,5 hPa 0,0 l/m 0,00 h 0,00 h 0,0 UV-I 0 W/m 1,2 km/h (1 Bft)
27.03.2014 22:00 9,3 C 7,0 C 68 % 1012,9 hPa 0,0 l/m 0,00 h 0,00 h 0,0 UV-I 0 W/m 0,5 km/h (0 Bft)
27.03.2014 23:00 8,6 C 6,0 C 71 % 1013,1 hPa 0,0 l/m 0,00 h 0,00 h 0,0 UV-I 0 W/m 0,0 km/h (0 Bft)
28.03.2014 00:00 8,8 C 6,5 C 72 % 1013,3 hPa 0,0 l/m 0,00 h 0,00 h 0,0 UV-I 0 W/m 0,2 km/h (0 Bft)
28.03.2014 01:00 7,7 C 5,3 C 76 % 1013,6 hPa 0,0 l/m 0,00 h 0,00 h 0,0 UV-I 0 W/m 0,0 km/h (0 Bft)
28.03.2014 02:00 6,2 C 4,0 C 82 % 1014,0 hPa 0,0 l/m 0,00 h 0,00 h 0,0 UV-I 0 W/m 0,0 km/h (0 Bft)
28.03.2014 03:00 5,4 C 3,1 C 83 % 1014,2 hPa 0,0 l/m 0,00 h 0,00 h 0,0 UV-I 0 W/m 0,0 km/h (0 Bft)
28.03.2014 04:00 5,0 C 2,4 C 84 % 1014,4 hPa 0,0 l/m 0,00 h 0,00 h 0,0 UV-I 0 W/m 0,0 km/h (0 Bft)
28.03.2014 05:00 5,2 C 3,1 C 83 % 1014,7 hPa 0,0 l/m 0,00 h 0,00 h 0,0 UV-I 0 W/m 1,2 km/h (1 Bft)
28.03.2014 06:00 4,1 C 2,0 C 86 % 1015,2 hPa 0,0 l/m 0,00 h 0,00 h 0,0 UV-I 16 W/m 0,0 km/h (0 Bft)
28.03.2014 07:00 4,7 C 2,9 C 87 % 1015,7 hPa 0,0 l/m 0,30 h 0,00 h 0,0 UV-I 76 W/m 0,1 km/h (0 Bft)
28.03.2014 08:00 7,7 C 5,9 C 79 % 1016,1 hPa 0,0 l/m 0,97 h 0,00 h 0,0 UV-I 254 W/m 1,2 km/h (1 Bft)
28.03.2014 09:00 11,0 C 9,0 C 70 % 1016,6 hPa 0,0 l/m 0,97 h 0,00 h 0,6 UV-I 400 W/m 4,4 km/h (1 Bft)
28.03.2014 10:00 13,8 C 12,1 C 62 % 1016,6 hPa 0,0 l/m 0,97 h 0,00 h 1,0 UV-I 515 W/m 10,6 km/h (2 Bft)
28.03.2014 11:00 16,1 C 14,4 C 56 % 1016,6 hPa 0,0 l/m 0,97 h 0,00 h 1,4 UV-I 588 W/m 10,5 km/h (2 Bft)
28.03.2014 12:00 17,9 C 16,1 C 50 % 1016,3 hPa 0,0 l/m 0,97 h 0,00 h 1,2 UV-I 629 W/m 17,3 km/h (3 Bft)
28.03.2014 13:00 19,0 C 17,2 C 46 % 1016,1 hPa 0,0 l/m 0,97 h 0,00 h 1,7 UV-I 619 W/m 20,4 km/h (4 Bft)
28.03.2014 14:00 19,4 C 17,9 C 44 % 1015,9 hPa 0,0 l/m 0,97 h 0,00 h 1,3 UV-I 572 W/m 19,5 km/h (3 Bft)
28.03.2014 15:00 19,0 C 18,1 C 44 % 1015,4 hPa 0,0 l/m 0,53 h 0,00 h 0,7 UV-I 339 W/m 13,9 km/h (3 Bft)
28.03.2014 16:00 18,3 C 16,3 C 43 % 1015,2 hPa 0,0 l/m 0,17 h 0,00 h 0,0 UV-I 173 W/m 8,4 km/h (2 Bft)
28.03.2014 17:00 17,5 C 15,2 C 45 % 1015,2 hPa 0,0 l/m 0,00 h 0,00 h 0,0 UV-I 77 W/m 4,8 km/h (1 Bft)
28.03.2014 18:00 15,8 C 12,5 C 50 % 1015,7 hPa 0,0 l/m 0,00 h 0,00 h 0,0 UV-I 21 W/m 2,9 km/h (1 Bft)
28.03.2014 19:00 13,6 C 10,9 C 60 % 1016,4 hPa 0,0 l/m 0,00 h 0,00 h 0,0 UV-I 0 W/m 2,9 km/h (1 Bft)
28.03.2014 20:00 12,1 C 9,7 C 67 % 1016,9 hPa 0,0 l/m 0,00 h 0,00 h 0,0 UV-I 0 W/m 2,5 km/h (1 Bft)
28.03.2014 21:00 10,8 C 8,8 C 72 % 1017,5 hPa 0,0 l/m 0,00 h 0,00 h 0,0 UV-I 0 W/m 1,7 km/h (1 Bft)
28.03.2014 22:00 9,9 C 7,8 C 72 % 1018,0 hPa 0,0 l/m 0,00 h 0,00 h 0,0 UV-I 0 W/m 3,0 km/h (1 Bft)
28.03.2014 23:00 9,9 C 7,8 C 66 % 1018,3 hPa 0,0 l/m 0,00 h 0,00 h 0,0 UV-I 0 W/m 7,8 km/h (2 Bft)
29.03.2014 00:00 9,2 C 7,4 C 70 % 1018,4 hPa 0,0 l/m 0,00 h 0,00 h 0,0 UV-I 0 W/m 11,3 km/h (2 Bft)
29.03.2014 01:00 8,5 C 6,7 C 74 % 1018,5 hPa 0,0 l/m 0,00 h 0,00 h 0,0 UV-I 0 W/m 10,7 km/h (2 Bft)
29.03.2014 02:00 8,1 C 6,5 C 76 % 1018,5 hPa 0,0 l/m 0,00 h 0,00 h 0,0 UV-I 0 W/m 14,6 km/h (3 Bft)
29.03.2014 03:00 7,7 C 6,1 C 78 % 1018,5 hPa 0,0 l/m 0,00 h 0,00 h 0,0 UV-I 0 W/m 12,7 km/h (3 Bft)
29.03.2014 04:00 7,2 C 5,7 C 80 % 1018,6 hPa 0,0 l/m 0,00 h 0,00 h 0,0 UV-I 0 W/m 13,1 km/h (3 Bft)
29.03.2014 05:00 7,0 C 5,5 C 81 % 1018,7 hPa 0,0 l/m 0,00 h 0,00 h 0,0 UV-I 0 W/m 13,5 km/h (3 Bft)
29.03.2014 06:00 7,1 C 5,6 C 81 % 1019,0 hPa 0,0 l/m 0,00 h 0,00 h 0,0 UV-I 16 W/m 15,4 km/h (3 Bft)
29.03.2014 07:00 7,6 C 6,2 C 80 % 1019,2 hPa 0,0 l/m 0,30 h 0,00 h 0,0 UV-I 77 W/m 14,8 km/h (3 Bft)
29.03.2014 08:00 9,5 C 8,0 C 76 % 1019,4 hPa 0,0 l/m 1,00 h 0,00 h 0,0 UV-I 254 W/m 17,2 km/h (3 Bft)
29.03.2014 09:00 12,2 C 10,5 C 69 % 1019,8 hPa 0,0 l/m 0,97 h 0,00 h 0,6 UV-I 397 W/m 22,0 km/h (4 Bft)
29.03.2014 10:00 14,8 C 13,5 C 63 % 1019,7 hPa 0,0 l/m 0,97 h 0,00 h 1,0 UV-I 519 W/m 17,4 km/h (3 Bft)
29.03.2014 11:00 17,0 C 15,6 C 57 % 1019,3 hPa 0,0 l/m 1,00 h 0,00 h 1,4 UV-I 600 W/m 19,0 km/h (3 Bft)
29.03.2014 12:00 18,9 C 17,3 C 50 % 1019,1 hPa 0,0 l/m 0,97 h 0,00 h 1,2 UV-I 642 W/m 22,6 km/h (4 Bft)
29.03.2014 13:00 19,9 C 18,1 C 46 % 1018,6 hPa 0,0 l/m 1,00 h 0,00 h 1,8 UV-I 608 W/m 21,4 km/h (4 Bft)
29.03.2014 14:00 20,3 C 18,8 C 43 % 1018,0 hPa 0,0 l/m 1,00 h 0,00 h 1,4 UV-I 546 W/m 18,1 km/h (3 Bft)
29.03.2014 15:00 20,7 C 20,5 C 41 % 1017,4 hPa 0,0 l/m 1,00 h 0,00 h 0,9 UV-I 457 W/m 15,3 km/h (3 Bft)
29.03.2014 16:00 20,2 C 17,9 C 40 % 1016,8 hPa 0,0 l/m 0,67 h 0,00 h 0,5 UV-I 240 W/m 13,5 km/h (3 Bft)
29.03.2014 17:00 19,3 C 16,6 C 41 % 1016,6 hPa 0,0 l/m 0,53 h 0,00 h 0,0 UV-I 134 W/m 10,6 km/h (2 Bft)
29.03.2014 18:00 17,7 C 13,3 C 46 % 1016,6 hPa 0,0 l/m 0,10 h 0,00 h 0,0 UV-I 26 W/m 3,5 km/h (1 Bft)
29.03.2014 19:00 14,7 C 9,5 C 56 % 1016,8 hPa 0,0 l/m 0,00 h 0,00 h 0,0 UV-I 5 W/m 0,0 km/h (0 Bft)
29.03.2014 20:00 11,9 C 8,3 C 67 % 1017,0 hPa 0,0 l/m 0,00 h 0,00 h 0,0 UV-I 0 W/m 0,0 km/h (0 Bft)
29.03.2014 21:00 10,0 C 6,9 C 74 % 1017,1 hPa 0,0 l/m 0,00 h 0,00 h 0,0 UV-I 0 W/m 0,0 km/h (0 Bft)
29.03.2014 22:00 8,7 C 5,9 C 79 % 1017,0 hPa 0,0 l/m 0,00 h 0,00 h 0,0 UV-I 0 W/m 0,0 km/h (0 Bft)
29.03.2014 23:00 7,6 C 5,1 C 83 % 1017,0 hPa 0,0 l/m 0,00 h 0,00 h 0,0 UV-I 0 W/m 0,0 km/h (0 Bft)
30.03.2014 00:00 6,8 C 4,4 C 85 % 1016,9 hPa 0,0 l/m 0,00 h 0,00 h 0,0 UV-I 0 W/m 0,0 km/h (0 Bft)
30.03.2014 01:00 6,0 C 3,8 C 87 % 1016,7 hPa 0,0 l/m 0,00 h 0,00 h 0,0 UV-I 0 W/m 0,0 km/h (0 Bft)
30.03.2014 03:00 5,3 C 3,2 C 89 % 1016,6 hPa 0,0 l/m 0,00 h 0,00 h 0,0 UV-I 0 W/m 0,0 km/h (0 Bft)
30.03.2014 04:00 4,8 C 2,8 C 90 % 1016,4 hPa 0,0 l/m 0,00 h 0,00 h 0,0 UV-I 0 W/m 0,0 km/h (0 Bft)
30.03.2014 05:00 4,2 C 2,2 C 91 % 1016,2 hPa 0,0 l/m 0,00 h 0,00 h 0,0 UV-I 0 W/m 0,0 km/h (0 Bft)
30.03.2014 06:00 3,9 C 2,1 C 91 % 1016,0 hPa 0,0 l/m 0,00 h 0,00 h 0,0 UV-I 0 W/m 0,0 km/h (0 Bft)
30.03.2014 07:00 3,9 C 2,1 C 93 % 1016,3 hPa 0,0 l/m 0,20 h 0,00 h 0,0 UV-I 21 W/m 0,0 km/h (0 Bft)
30.03.2014 08:00 7,1 C 4,8 C 87 % 1016,4 hPa 0,0 l/m 0,33 h 0,00 h 0,0 UV-I 99 W/m 2,4 km/h (1 Bft)
30.03.2014 09:00 10,2 C 8,7 C 79 % 1016,5 hPa 0,0 l/m 0,97 h 0,00 h 0,0 UV-I 261 W/m 8,1 km/h (2 Bft)
30.03.2014 10:00 13,2 C 11,7 C 70 % 1016,6 hPa 0,0 l/m 0,97 h 0,00 h 0,6 UV-I 388 W/m 13,0 km/h (3 Bft)
30.03.2014 11:00 16,0 C 14,5 C 64 % 1016,5 hPa 0,0 l/m 1,00 h 0,00 h 1,1 UV-I 514 W/m 8,0 km/h (2 Bft)
30.03.2014 12:00 18,4 C 16,6 C 56 % 1016,0 hPa 0,0 l/m 0,97 h 0,00 h 1,5 UV-I 596 W/m 7,0 km/h (2 Bft)
30.03.2014 13:00 20,6 C 18,6 C 50 % 1015,4 hPa 0,0 l/m 1,00 h 0,00 h 1,2 UV-I 620 W/m 11,3 km/h (2 Bft)
30.03.2014 14:00 20,9 C 19,6 C 45 % 1015,0 hPa 0,0 l/m 0,73 h 0,00 h 1,2 UV-I 418 W/m 10,5 km/h (2 Bft)
30.03.2014 15:00 20,8 C 19,5 C 41 % 1014,7 hPa 0,0 l/m 0,17 h 0,00 h 0,7 UV-I 291 W/m 5,5 km/h (1 Bft)
30.03.2014 16:00 20,4 C 18,6 C 42 % 1014,6 hPa 0,0 l/m 0,27 h 0,00 h 0,0 UV-I 230 W/m 1,2 km/h (1 Bft)
30.03.2014 17:00 20,6 C 18,7 C 38 % 1014,3 hPa 0,0 l/m 0,43 h 0,00 h 0,0 UV-I 209 W/m 0,4 km/h (0 Bft)
30.03.2014 18:00 19,6 C 16,7 C 44 % 1014,2 hPa 0,0 l/m 0,23 h 0,00 h 0,0 UV-I 104 W/m 0,3 km/h (0 Bft)
30.03.2014 19:00 16,8 C 13,3 C 57 % 1014,4 hPa 0,0 l/m 0,00 h 0,00 h 0,0 UV-I 25 W/m 0,0 km/h (0 Bft)
30.03.2014 20:00 14,3 C 11,0 C 65 % 1014,7 hPa 0,0 l/m 0,00 h 0,00 h 0,0 UV-I 0 W/m 0,0 km/h (0 Bft)
30.03.2014 21:00 13,1 C 10,1 C 69 % 1015,0 hPa 0,0 l/m 0,00 h 0,00 h 0,0 UV-I 0 W/m 0,0 km/h (0 Bft)
30.03.2014 22:00 11,9 C 9,0 C 72 % 1015,1 hPa 0,0 l/m 0,00 h 0,00 h 0,0 UV-I 0 W/m 0,0 km/h (0 Bft)
30.03.2014 23:00 10,8 C 8,2 C 77 % 1015,0 hPa 0,0 l/m 0,00 h 0,00 h 0,0 UV-I 0 W/m 0,0 km/h (0 Bft)
Min-Datum _ 26.03.14 25.03.14 30.03.14 25.03.14 - - - - - 24.03.14
_ Min-Zeit 06:06 03:18 17:08 15:42 - - - - - 00:00
Minimum _ -1,2 C -2,2 C 35 % 1008,8 hPa - - - - - 0,0 km/h (0 Bft)
Max-Datum _ 30.03.14 29.03.14 25.03.14 29.03.14 25.03.14 24.03.14 24.03.14 28.03.14 24.03.14 28.03.14
_ Max-Zeit 15:12 15:26 08:12 09:24 08:08 06:40 12:56 12:58 11:58 14:18
Maximum _ 21,5 C 22,2 C 98 % 1019,9 hPa 0,2 l/m 0,03 h 0,03 h 1,9 UV-I 796 W/m 41,2 km/h
S-SO (6 Bft)
Durchschnitt _ 8,8 C 7,2 C 73 % 1014,1 hPa #0,4 l/m #55:36 h #1:46 h 1,0 UV-I 308 W/m 4,9 km/h (1 Bft)
© 2014 W. Hausmann